createdAt,value
2018-05-09T00:01:26.993Z,17
2018-05-09T00:11:27.686Z,17
2018-05-09T00:21:27.835Z,17
2018-05-09T00:31:27.784Z,17
2018-05-09T00:41:27.451Z,17
2018-05-09T00:51:28.319Z,17
2018-05-09T01:01:27.336Z,17
2018-05-09T01:11:27.054Z,18
2018-05-09T01:21:28.199Z,17
2018-05-09T01:31:27.966Z,17
2018-05-09T01:41:27.929Z,17
2018-05-09T01:51:27.519Z,17
2018-05-09T02:01:28.303Z,17
2018-05-09T02:11:30.405Z,17
2018-05-09T02:21:27.767Z,17
2018-05-09T02:31:26.455Z,17
2018-05-09T02:41:29.178Z,17
2018-05-09T02:51:28.202Z,18
2018-05-09T03:01:28.138Z,17
2018-05-09T03:11:28.263Z,17
2018-05-09T03:21:27.143Z,17
2018-05-09T03:31:27.643Z,17
2018-05-09T03:41:28.190Z,17
2018-05-09T03:51:28.176Z,17
2018-05-09T04:01:27.882Z,17
2018-05-09T04:11:27.791Z,17
2018-05-09T04:21:28.000Z,17
2018-05-09T04:31:28.029Z,17
2018-05-09T04:41:27.856Z,17
2018-05-09T04:51:27.511Z,18
2018-05-09T05:01:27.530Z,17
2018-05-09T05:11:26.313Z,18
2018-05-09T05:21:27.779Z,18
2018-05-09T05:31:28.606Z,18
2018-05-09T05:41:27.737Z,18
2018-05-09T05:51:26.331Z,18
2018-05-09T06:01:27.550Z,18
2018-05-09T06:11:27.275Z,18
2018-05-09T06:21:26.434Z,19
2018-05-09T06:31:26.151Z,18
2018-05-09T06:41:27.867Z,18
2018-05-09T06:51:28.159Z,18
2018-05-09T07:01:29.524Z,18
2018-05-09T07:11:27.733Z,19
2018-05-09T07:21:26.602Z,19
2018-05-09T07:31:27.495Z,20
2018-05-09T07:41:26.183Z,20
2018-05-09T07:51:27.815Z,20
2018-05-09T08:01:28.176Z,20
2018-05-09T08:11:27.681Z,20
2018-05-09T08:21:27.946Z,20
2018-05-09T08:31:27.024Z,20
2018-05-09T08:41:27.717Z,20
2018-05-09T08:51:28.043Z,21
2018-05-09T09:01:27.879Z,21
2018-05-09T14:55:24.854Z,26
2018-05-09T15:32:32.552Z,26
2018-05-09T16:02:07.156Z,27
2018-05-09T16:21:59.613Z,27
2018-05-09T16:34:53.080Z,26
2018-05-09T16:41:27.160Z,26
2018-05-09T16:51:27.121Z,24
2018-05-09T17:01:27.787Z,22
2018-05-09T17:11:28.078Z,22
2018-05-09T17:21:26.374Z,22
2018-05-09T17:31:27.346Z,22
2018-05-09T17:41:26.689Z,22
2018-05-09T17:51:27.811Z,21
2018-05-09T18:01:27.814Z,22
2018-05-09T18:11:27.025Z,21
2018-05-09T18:21:26.931Z,21
2018-05-09T18:31:27.342Z,21
2018-05-09T18:41:27.009Z,21
2018-05-09T18:51:27.315Z,21
2018-05-09T19:01:27.126Z,21
2018-05-09T19:11:27.174Z,20
2018-05-09T19:21:28.854Z,20
2018-05-09T19:31:27.893Z,21
2018-05-09T19:41:27.457Z,20
2018-05-09T19:51:26.491Z,20
2018-05-09T20:01:26.292Z,20
2018-05-09T20:11:28.465Z,20
2018-05-09T20:21:27.829Z,20
2018-05-09T20:31:28.003Z,20
2018-05-09T20:41:27.601Z,20
2018-05-09T20:51:26.585Z,20
2018-05-09T21:01:27.654Z,20
2018-05-09T21:11:26.933Z,20
2018-05-09T21:21:27.972Z,20
2018-05-09T21:31:27.791Z,20
2018-05-09T21:41:29.167Z,20
2018-05-09T21:51:27.265Z,19
2018-05-09T22:01:28.433Z,19
2018-05-09T22:11:27.331Z,20
2018-05-09T22:21:27.190Z,20
2018-05-09T22:31:27.922Z,20
2018-05-09T22:41:28.045Z,20
2018-05-09T22:51:26.919Z,20
2018-05-09T23:01:27.749Z,19
2018-05-09T23:11:28.265Z,19
2018-05-09T23:21:27.520Z,19
2018-05-09T23:31:28.799Z,19
2018-05-09T23:41:26.978Z,19
2018-05-09T23:51:27.362Z,19
